Time;durP1;ratioP1;P1;durP2;ratioP2;P2;SDS_P1;SDS_P2;PMS_P1;PMS_P2;Temp;Humidity;BMP_temperature;BMP_pressure;BME280_temperature;BME280_humidity;BME280_pressure;Samples;Min_cycle;Max_cycle;Signal;HPM_P1;HPM_P2
2022/10/09 00:01:07;;;;;;;9.25;4.38;;;11.70;96.20;;;;;;5075531;28;20038;-89
2022/10/09 00:03:34;;;;;;;8.65;3.97;;;11.70;96.40;;;;;;5058036;28;20032;-89
2022/10/09 00:05:59;;;;;;;6.38;4.25;;;11.70;96.40;;;;;;5058820;28;20024;-89
2022/10/09 00:08:25;;;;;;;9.52;4.50;;;11.60;96.40;;;;;;5084947;28;20169;-89
2022/10/09 00:10:51;;;;;;;7.70;4.00;;;11.60;96.40;;;;;;5041707;28;20487;-89
2022/10/09 00:13:17;;;;;;;7.93;3.97;;;11.60;96.40;;;;;;5041144;28;20024;-88
2022/10/09 00:15:45;;;;;;;9.93;4.55;;;11.50;96.50;;;;;;5041067;28;20025;-89
2022/10/09 00:18:13;;;;;;;11.00;4.47;;;11.50;96.60;;;;;;5075229;28;20029;-89
2022/10/09 00:20:42;;;;;;;8.88;5.07;;;11.50;96.60;;;;;;5057477;28;20058;-89
2022/10/09 00:23:10;;;;;;;10.65;4.72;;;11.50;96.60;;;;;;5074643;28;20035;-90
2022/10/09 00:25:36;;;;;;;9.52;3.97;;;11.40;96.60;;;;;;5057333;28;20021;-89
2022/10/09 00:28:03;;;;;;;7.00;3.95;;;11.40;96.50;;;;;;5057631;28;20024;-89
2022/10/09 00:30:29;;;;;;;8.15;4.47;;;11.40;96.50;;;;;;5040443;28;20048;-89
2022/10/09 00:32:54;;;;;;;9.52;4.82;;;11.40;96.60;;;;;;5057424;28;20088;-89
2022/10/09 00:35:21;;;;;;;11.68;5.18;;;11.30;96.70;;;;;;5056779;28;20059;-89
2022/10/09 00:37:47;;;;;;;13.70;5.90;;;11.30;96.70;;;;;;5057382;28;20025;-89
2022/10/09 00:40:13;;;;;;;10.98;5.38;;;11.30;96.70;;;;;;5055782;28;20028;-88
2022/10/09 00:42:39;;;;;;;7.43;4.75;;;11.20;96.70;;;;;;5040539;28;20484;-89
2022/10/09 00:45:05;;;;;;;9.02;4.95;;;11.20;96.70;;;;;;5040212;28;20041;-90
2022/10/09 00:47:47;;;;;;;9.57;5.18;;;11.20;96.90;;;;;;5075658;28;20020;-89
2022/10/09 00:50:29;;;;;;;12.63;5.68;;;11.20;96.90;;;;;;5057352;28;20029;-90
2022/10/09 00:52:58;;;;;;;8.05;4.70;;;11.20;96.90;;;;;;5057375;28;20031;-89
2022/10/09 00:55:26;;;;;;;10.57;5.10;;;11.10;96.90;;;;;;5040160;28;20020;-89
2022/10/09 00:57:54;;;;;;;11.23;4.97;;;11.10;96.90;;;;;;5056767;28;20031;-88
2022/10/09 01:00:20;;;;;;;11.93;5.03;;;11.10;96.90;;;;;;5055638;28;20047;-88
2022/10/09 01:02:46;;;;;;;9.43;4.90;;;11.00;96.90;;;;;;5056280;28;20052;-87
2022/10/09 01:05:12;;;;;;;11.45;6.03;;;11.00;96.90;;;;;;5056244;28;20084;-89
2022/10/09 01:07:49;;;;;;;11.18;5.32;;;11.00;97.00;;;;;;5056383;28;20405;-88
2022/10/09 01:10:42;;;;;;;8.10;4.68;;;10.90;97.00;;;;;;5074319;28;20059;-89
2022/10/09 01:13:22;;;;;;;11.98;5.38;;;10.90;97.10;;;;;;5056894;28;20024;-89
2022/10/09 01:16:00;;;;;;;13.27;5.63;;;10.90;97.10;;;;;;5056711;28;20027;-89
2022/10/09 01:18:44;;;;;;;9.27;4.80;;;10.90;97.20;;;;;;5056267;28;20028;-89
2022/10/09 01:21:30;;;;;;;11.75;4.72;;;10.90;97.30;;;;;;5056067;28;20043;-88
2022/10/09 01:24:33;;;;;;;11.10;5.43;;;10.80;97.30;;;;;;5056369;28;20029;-89
2022/10/09 01:27:14;;;;;;;12.50;5.05;;;10.80;97.40;;;;;;5056344;28;20025;-89
2022/10/09 01:29:54;;;;;;;8.63;3.90;;;10.70;97.40;;;;;;5074397;28;20115;-88
2022/10/09 01:32:24;;;;;;;8.00;3.53;;;10.70;97.60;;;;;;5074153;28;20037;-89
2022/10/09 01:34:52;;;;;;;5.87;3.20;;;10.70;97.40;;;;;;5074348;28;20259;-89
2022/10/09 01:37:20;;;;;;;5.75;3.08;;;10.60;97.50;;;;;;5056136;28;20033;-89
2022/10/09 01:39:47;;;;;;;6.68;3.80;;;10.60;97.40;;;;;;5039984;28;20024;-89
2022/10/09 01:42:14;;;;;;;6.28;3.88;;;10.50;97.40;;;;;;5056507;28;20032;-90
2022/10/09 01:44:41;;;;;;;7.10;3.78;;;10.50;97.50;;;;;;5056075;28;20555;-90
2022/10/09 01:47:13;;;;;;;6.50;3.72;;;10.50;97.60;;;;;;5073572;28;20112;-89
2022/10/09 01:50:00;;;;;;;5.93;3.00;;;10.50;97.60;;;;;;5055862;28;20029;-91
2022/10/09 01:52:39;;;;;;;5.85;3.17;;;10.50;97.60;;;;;;5076690;28;20103;-90
2022/10/09 01:55:29;;;;;;;7.13;3.45;;;10.40;97.60;;;;;;5060133;28;20475;-90
2022/10/09 01:58:32;;;;;;;5.72;3.08;;;10.40;97.70;;;;;;5059950;28;20052;-89
2022/10/09 02:01:09;;;;;;;8.88;3.00;;;10.40;97.60;;;;;;5060504;28;20535;-90
2022/10/09 02:03:38;;;;;;;5.15;2.63;;;10.30;97.60;;;;;;5078220;28;20078;-90
2022/10/09 02:06:06;;;;;;;2.90;2.17;;;10.40;97.60;;;;;;5078163;28;20033;-90
2022/10/09 02:08:35;;;;;;;3.50;2.10;;;10.30;97.60;;;;;;5044007;28;20032;-90
2022/10/09 02:11:02;;;;;;;3.28;1.90;;;10.30;97.70;;;;;;5060643;28;20444;-90
2022/10/09 02:13:30;;;;;;;4.22;2.15;;;10.20;97.70;;;;;;5060045;28;20031;-90
2022/10/09 02:16:05;;;;;;;4.25;2.30;;;10.20;97.70;;;;;;5060170;28;20058;-90
2022/10/09 02:18:44;;;;;;;5.90;2.60;;;10.20;97.90;;;;;;5060533;28;20028;-90
2022/10/09 02:21:21;;;;;;;6.57;3.25;;;10.20;98.00;;;;;;5060057;28;20038;-89
2022/10/09 02:23:49;;;;;;;7.22;3.40;;;10.20;98.00;;;;;;5060813;28;20040;-87
2022/10/09 02:26:16;;;;;;;8.32;4.10;;;10.10;97.90;;;;;;5059681;28;20146;-89
2022/10/09 02:28:41;;;;;;;8.80;3.85;;;10.10;98.00;;;;;;5059938;28;20442;-89
2022/10/09 02:31:27;;;;;;;9.45;4.30;;;10.10;98.00;;;;;;5043293;28;20130;-89
2022/10/09 02:33:57;;;;;;;11.13;4.50;;;10.10;98.10;;;;;;5059788;28;20046;-89
2022/10/09 02:36:24;;;;;;;7.87;4.10;;;10.00;98.10;;;;;;5077405;28;20057;-90
2022/10/09 02:38:50;;;;;;;8.93;4.55;;;10.00;98.10;;;;;;5059468;28;20032;-89
2022/10/09 02:41:16;;;;;;;9.93;4.65;;;10.00;98.20;;;;;;5059418;28;20056;-89
2022/10/09 02:43:42;;;;;;;11.00;4.53;;;10.00;98.30;;;;;;5042636;28;20128;-89
2022/10/09 02:46:07;;;;;;;9.13;4.00;;;10.00;98.40;;;;;;5026504;28;20116;-89
2022/10/09 02:48:33;;;;;;;7.03;4.30;;;10.00;98.50;;;;;;5042374;28;20119;-89
2022/10/09 02:51:00;;;;;;;7.57;3.53;;;10.00;98.50;;;;;;5059356;28;20036;-89
2022/10/09 02:53:25;;;;;;;3.58;2.60;;;9.90;98.50;;;;;;5059094;28;20027;-90
2022/10/09 02:55:51;;;;;;;4.57;2.65;;;9.90;98.40;;;;;;5059678;28;20115;-89
2022/10/09 02:58:17;;;;;;;5.10;3.03;;;9.90;98.40;;;;;;5059448;28;20033;-90
2022/10/09 03:00:46;;;;;;;6.05;3.00;;;9.90;98.40;;;;;;5042259;28;20200;-89
2022/10/09 03:03:12;;;;;;;6.20;2.88;;;9.90;98.40;;;;;;5058787;28;20033;-89
2022/10/09 03:05:37;;;;;;;5.30;2.75;;;9.80;98.30;;;;;;5076786;28;20487;-89
2022/10/09 03:08:03;;;;;;;7.45;3.15;;;9.80;98.30;;;;;;5058842;28;20059;-89
2022/10/09 03:10:28;;;;;;;5.90;2.92;;;9.70;98.30;;;;;;5059248;28;20028;-90
2022/10/09 03:12:54;;;;;;;6.05;3.00;;;9.70;98.30;;;;;;5047278;28;20025;-89
2022/10/09 03:15:20;;;;;;;5.25;2.85;;;9.70;98.30;;;;;;5052060;28;20063;-89
2022/10/09 03:17:45;;;;;;;5.30;3.10;;;9.70;98.30;;;;;;5052366;28;20035;-90
2022/10/09 03:20:11;;;;;;;5.45;2.88;;;9.70;98.30;;;;;;5052622;28;20035;-89
2022/10/09 03:22:37;;;;;;;4.70;3.13;;;9.70;98.30;;;;;;5073747;28;20032;-90
2022/10/09 03:25:03;;;;;;;6.43;3.10;;;9.60;98.30;;;;;;5074527;28;20080;-89
2022/10/09 03:27:29;;;;;;;4.70;2.80;;;9.60;98.30;;;;;;5097366;28;20008;-94
2022/10/09 03:29:56;;;;;;;4.72;2.90;;;9.50;98.30;;;;;;5081204;28;20035;-90
2022/10/09 03:32:22;;;;;;;5.00;3.08;;;9.60;98.30;;;;;;5066178;28;20004;-90
2022/10/09 03:34:47;;;;;;;5.85;3.30;;;9.50;98.40;;;;;;5065128;28;20009;-90
2022/10/09 03:37:13;;;;;;;6.10;3.50;;;9.50;98.50;;;;;;5064110;28;20088;-90
2022/10/09 03:39:38;;;;;;;10.57;4.40;;;9.50;98.50;;;;;;5062255;28;20092;-90
2022/10/09 03:42:04;;;;;;;6.50;3.42;;;9.50;98.50;;;;;;5087303;28;20033;-89
2022/10/09 03:44:30;;;;;;;8.50;3.80;;;9.40;98.50;;;;;;5059816;28;20029;-90
2022/10/09 03:46:55;;;;;;;8.85;4.15;;;9.50;98.60;;;;;;5042020;28;20120;-89
2022/10/09 03:49:21;;;;;;;8.27;4.35;;;9.40;98.60;;;;;;5041485;28;20467;-89
2022/10/09 03:51:46;;;;;;;10.05;4.32;;;9.40;98.60;;;;;;5058302;28;20052;-89
2022/10/09 03:54:12;;;;;;;9.13;3.80;;;9.40;98.70;;;;;;5041619;28;20052;-89
2022/10/09 03:56:38;;;;;;;7.18;3.92;;;9.30;98.70;;;;;;5057809;28;20027;-89
2022/10/09 03:59:06;;;;;;;11.45;4.57;;;9.30;98.80;;;;;;5041812;28;20112;-89
2022/10/09 04:01:32;;;;;;;11.75;4.15;;;9.30;98.80;;;;;;5057555;28;20035;-91
2022/10/09 04:03:57;;;;;;;8.05;4.38;;;9.30;98.90;;;;;;5024528;28;20076;-89
2022/10/09 04:06:23;;;;;;;10.23;4.55;;;9.30;99.00;;;;;;5041307;28;20025;-89
2022/10/09 04:08:48;;;;;;;10.52;4.32;;;9.30;99.10;;;;;;5024650;28;20092;-89
2022/10/09 04:11:14;;;;;;;8.38;4.15;;;9.30;99.10;;;;;;5024659;28;20060;-89
2022/10/09 04:13:40;;;;;;;9.50;4.70;;;9.20;99.10;;;;;;5056869;28;20032;-89
2022/10/09 04:16:08;;;;;;;8.98;4.00;;;9.30;99.20;;;;;;5024505;28;20025;-89
2022/10/09 04:18:33;;;;;;;8.93;4.22;;;9.30;99.30;;;;;;5041511;28;20418;-88
2022/10/09 04:20:59;;;;;;;8.82;4.20;;;9.30;99.30;;;;;;5075432;28;20024;-89
2022/10/09 04:23:26;;;;;;;10.18;4.03;;;9.20;99.30;;;;;;5041131;28;20494;-89
2022/10/09 04:25:54;;;;;;;11.57;4.97;;;9.20;99.30;;;;;;5041133;28;20111;-89
2022/10/09 04:28:20;;;;;;;14.48;4.63;;;9.20;99.40;;;;;;5058166;28;20029;-89
2022/10/09 04:30:46;;;;;;;11.55;4.30;;;9.20;99.40;;;;;;5040972;28;20080;-90
2022/10/09 04:33:12;;;;;;;7.95;3.85;;;9.20;99.40;;;;;;5057863;28;20029;-90
2022/10/09 04:35:41;;;;;;;7.10;3.75;;;9.20;99.50;;;;;;5040658;28;20028;-89
2022/10/09 04:38:07;;;;;;;10.73;4.50;;;9.10;99.50;;;;;;5057287;28;20119;-89
2022/10/09 04:40:32;;;;;;;10.00;4.65;;;9.10;99.50;;;;;;5056874;28;20166;-89
2022/10/09 04:42:58;;;;;;;5.93;3.83;;;9.10;99.50;;;;;;5057036;28;20038;-89
2022/10/09 04:45:23;;;;;;;7.53;4.00;;;9.10;99.60;;;;;;5024221;28;20119;-89
2022/10/09 04:47:49;;;;;;;7.03;3.60;;;9.10;99.60;;;;;;5057199;28;20043;-89
2022/10/09 04:50:15;;;;;;;8.38;4.07;;;9.10;99.60;;;;;;5024237;28;20373;-89
2022/10/09 04:52:41;;;;;;;8.85;4.07;;;9.10;99.70;;;;;;5039985;28;20464;-91
2022/10/09 04:55:07;;;;;;;7.05;4.03;;;9.00;99.70;;;;;;5040972;28;20122;-90
2022/10/09 04:57:32;;;;;;;9.93;3.97;;;9.00;99.60;;;;;;5040910;28;20086;-89
2022/10/09 04:59:58;;;;;;;7.80;4.00;;;9.00;99.70;;;;;;5074630;28;20036;-89
2022/10/09 05:02:24;;;;;;;9.38;4.50;;;9.00;99.70;;;;;;5075326;28;20032;-88
2022/10/09 05:04:49;;;;;;;5.65;3.45;;;8.90;99.80;;;;;;5056875;28;20032;-90
2022/10/09 05:07:15;;;;;;;7.38;3.70;;;8.90;99.80;;;;;;5074122;28;20029;-89
2022/10/09 05:09:40;;;;;;;8.60;4.18;;;8.90;99.80;;;;;;5057052;28;20107;-90
2022/10/09 05:12:06;;;;;;;9.50;4.90;;;8.90;99.80;;;;;;5023818;28;20040;-89
2022/10/09 05:14:32;;;;;;;6.82;3.72;;;8.90;99.90;;;;;;5057005;28;20031;-89
2022/10/09 05:17:01;;;;;;;6.45;4.35;;;8.90;99.90;;;;;;5057091;28;20487;-89
2022/10/09 05:19:27;;;;;;;5.03;3.55;;;8.90;99.90;;;;;;5041505;28;20049;-89
2022/10/09 05:21:53;;;;;;;6.38;3.50;;;8.80;99.90;;;;;;5056690;28;20487;-89
2022/10/09 05:24:19;;;;;;;7.15;3.55;;;8.80;99.90;;;;;;5074919;28;20050;-90
2022/10/09 05:26:45;;;;;;;8.70;4.18;;;8.80;99.90;;;;;;5058591;28;20388;-89
2022/10/09 05:29:10;;;;;;;5.70;3.47;;;8.80;99.90;;;;;;5041683;28;20075;-89
2022/10/09 05:31:36;;;;;;;5.80;3.38;;;8.80;99.90;;;;;;5040929;28;20121;-90
2022/10/09 05:34:03;;;;;;;7.35;3.45;;;8.70;99.90;;;;;;5040450;28;20025;-89
2022/10/09 05:36:29;;;;;;;7.00;3.67;;;8.70;99.90;;;;;;5056511;28;20025;-90
2022/10/09 05:38:55;;;;;;;5.72;3.38;;;8.70;99.90;;;;;;5056561;28;20016;-90
2022/10/09 05:41:21;;;;;;;6.40;3.35;;;8.70;99.90;;;;;;5056894;28;20044;-89
2022/10/09 05:43:48;;;;;;;7.03;3.55;;;8.70;99.90;;;;;;5040998;28;20028;-89
2022/10/09 05:46:17;;;;;;;8.98;3.20;;;8.60;99.90;;;;;;5058814;28;20025;-89
2022/10/09 05:48:45;;;;;;;7.10;3.63;;;8.60;99.90;;;;;;5076997;28;20467;-91
2022/10/09 05:51:14;;;;;;;6.50;3.42;;;8.60;99.90;;;;;;5068136;28;20111;-89
2022/10/09 05:53:41;;;;;;;8.05;4.03;;;8.60;99.90;;;;;;5059212;28;20467;-90
2022/10/09 05:56:13;;;;;;;5.70;3.60;;;8.60;99.90;;;;;;5065369;28;20083;-90
2022/10/09 05:58:38;;;;;;;8.57;3.40;;;8.60;99.90;;;;;;5058512;28;20021;-90
2022/10/09 06:01:04;;;;;;;6.45;3.80;;;8.60;99.90;;;;;;5039617;28;20036;-90
2022/10/09 06:03:30;;;;;;;8.45;3.92;;;8.60;99.90;;;;;;5023320;28;20040;-89
2022/10/09 06:06:03;;;;;;;7.07;3.72;;;8.60;99.90;;;;;;5040446;28;20064;-90
2022/10/09 06:08:32;;;;;;;6.90;3.67;;;8.50;99.90;;;;;;5040519;28;20033;-89
2022/10/09 06:11:06;;;;;;;6.10;3.42;;;8.60;99.90;;;;;;5074165;28;20082;-89
2022/10/09 06:13:32;;;;;;;6.82;4.00;;;8.50;99.90;;;;;;5040760;28;20025;-90
2022/10/09 06:15:58;;;;;;;6.82;4.00;;;8.60;99.90;;;;;;5040297;28;20433;-89
2022/10/09 06:18:23;;;;;;;6.38;3.85;;;8.50;99.90;;;;;;5051759;28;20028;-89
2022/10/09 06:20:58;;;;;;;6.35;4.10;;;8.60;99.90;;;;;;5039397;28;20037;-89
2022/10/09 06:23:25;;;;;;;9.18;4.65;;;8.50;99.90;;;;;;5055822;28;20048;-89
2022/10/09 06:25:56;;;;;;;9.35;3.88;;;8.60;99.90;;;;;;5055901;28;20021;-89
2022/10/09 06:28:22;;;;;;;6.50;4.07;;;8.50;99.90;;;;;;5056160;28;20016;-89
2022/10/09 06:30:51;;;;;;;7.38;3.85;;;8.60;99.90;;;;;;5038962;28;20056;-90
2022/10/09 06:33:17;;;;;;;9.40;4.88;;;8.50;99.90;;;;;;5073876;28;20063;-89
2022/10/09 06:35:42;;;;;;;8.85;4.30;;;8.60;99.90;;;;;;5039637;28;20028;-88
2022/10/09 06:38:08;;;;;;;7.88;4.07;;;8.60;99.90;;;;;;5057580;28;20033;-89
2022/10/09 06:40:36;;;;;;;7.10;4.07;;;8.60;99.90;;;;;;5059970;28;20056;-88
2022/10/09 06:43:02;;;;;;;8.25;4.30;;;8.60;99.90;;;;;;5061424;28;20033;-89
2022/10/09 06:45:28;;;;;;;8.88;4.57;;;8.60;99.90;;;;;;5059759;28;20460;-89
2022/10/09 06:47:54;;;;;;;9.35;4.50;;;8.60;99.90;;;;;;5042929;28;20055;-89
2022/10/09 06:50:20;;;;;;;9.80;4.50;;;8.60;99.90;;;;;;5059117;28;20138;-89
2022/10/09 06:52:45;;;;;;;8.23;4.70;;;8.60;99.90;;;;;;5042727;28;20028;-89
2022/10/09 06:55:11;;;;;;;14.35;4.97;;;8.60;99.90;;;;;;5042653;28;20033;-89
2022/10/09 06:57:37;;;;;;;7.85;4.22;;;8.70;99.90;;;;;;5058871;28;20074;-89
2022/10/09 07:00:04;;;;;;;9.73;4.97;;;8.70;99.90;;;;;;5060443;28;20032;-89
2022/10/09 07:02:31;;;;;;;9.00;4.85;;;8.70;99.90;;;;;;5060387;28;20112;-89
2022/10/09 07:04:57;;;;;;;10.85;5.38;;;8.70;99.90;;;;;;5060602;28;20028;-89
2022/10/09 07:07:22;;;;;;;9.27;5.40;;;8.80;99.90;;;;;;5042795;28;20388;-90
2022/10/09 07:09:48;;;;;;;8.63;4.47;;;8.80;99.90;;;;;;5058942;28;20503;-89
2022/10/09 07:12:14;;;;;;;9.55;4.93;;;8.80;99.90;;;;;;5042157;28;20478;-91
2022/10/09 07:14:39;;;;;;;9.15;5.20;;;8.90;99.90;;;;;;5042196;28;20047;-90
2022/10/09 07:17:05;;;;;;;10.88;4.90;;;8.90;99.90;;;;;;5058864;28;20055;-89
2022/10/09 07:19:33;;;;;;;8.48;4.60;;;8.90;99.90;;;;;;5059003;28;20025;-89
2022/10/09 07:21:59;;;;;;;8.35;5.20;;;9.00;99.90;;;;;;5059319;28;20036;-90
2022/10/09 07:24:24;;;;;;;11.88;5.00;;;9.00;99.90;;;;;;5076783;28;20365;-90
2022/10/09 07:26:50;;;;;;;10.60;5.05;;;9.00;99.90;;;;;;5058699;28;20046;-90
2022/10/09 07:29:17;;;;;;;7.93;4.50;;;9.10;99.90;;;;;;5042031;28;20032;-89
2022/10/09 07:31:43;;;;;;;12.50;5.50;;;9.10;99.90;;;;;;5058013;28;20121;-89
2022/10/09 07:34:09;;;;;;;9.55;4.80;;;9.10;99.90;;;;;;5041422;28;20426;-89
2022/10/09 07:36:35;;;;;;;11.48;4.78;;;9.20;99.90;;;;;;5058005;28;20016;-89
2022/10/09 07:39:02;;;;;;;10.10;4.95;;;9.20;99.90;;;;;;5077265;28;20035;-89
2022/10/09 07:41:29;;;;;;;8.48;5.22;;;9.20;99.90;;;;;;5060197;28;20115;-89
2022/10/09 07:43:56;;;;;;;9.55;4.50;;;9.30;99.90;;;;;;5078573;28;20028;-89
2022/10/09 07:46:24;;;;;;;12.95;5.38;;;9.30;99.90;;;;;;5061375;28;20074;-89
2022/10/09 07:48:50;;;;;;;9.43;5.60;;;9.40;99.90;;;;;;5060755;28;20482;-89
2022/10/09 07:51:17;;;;;;;11.80;5.78;;;9.40;99.90;;;;;;5058246;28;20460;-89
2022/10/09 07:53:43;;;;;;;12.63;5.75;;;9.50;99.90;;;;;;5061193;28;20070;-89
2022/10/09 07:56:18;;;;;;;10.95;4.80;;;9.50;99.90;;;;;;5060727;28;20353;-89
2022/10/09 07:58:52;;;;;;;10.43;5.47;;;9.50;99.90;;;;;;5042613;28;20092;-89
2022/10/09 08:01:19;;;;;;;9.07;5.18;;;9.60;99.90;;;;;;5058263;28;20078;-88
2022/10/09 08:03:45;;;;;;;16.02;5.68;;;9.60;99.90;;;;;;5057637;28;20033;-89
2022/10/09 08:06:11;;;;;;;12.57;6.40;;;9.60;99.90;;;;;;5057372;28;20094;-88
2022/10/09 08:08:36;;;;;;;11.55;5.68;;;9.70;99.90;;;;;;5062573;28;20457;-90
2022/10/09 08:11:11;;;;;;;9.15;5.15;;;9.70;99.90;;;;;;5045340;28;20029;-89
2022/10/09 08:13:37;;;;;;;14.95;6.93;;;9.80;99.90;;;;;;5059573;28;20363;-88
2022/10/09 08:16:03;;;;;;;10.93;6.10;;;9.80;99.90;;;;;;5057759;28;20130;-89
2022/10/09 08:18:29;;;;;;;12.23;6.35;;;9.80;99.90;;;;;;5058762;28;20070;-88
2022/10/09 08:21:04;;;;;;;13.25;6.18;;;9.90;99.90;;;;;;5042399;28;20426;-88
2022/10/09 08:23:30;;;;;;;10.55;5.93;;;9.90;99.90;;;;;;5075361;28;20067;-89
2022/10/09 08:25:56;;;;;;;13.32;6.00;;;9.90;99.90;;;;;;5025336;28;20028;-89
2022/10/09 08:28:22;;;;;;;10.77;6.00;;;10.00;99.90;;;;;;5040600;28;20119;-89
2022/10/09 08:30:48;;;;;;;13.73;6.35;;;10.00;99.90;;;;;;5063027;28;20049;-87
2022/10/09 08:33:14;;;;;;;12.30;6.07;;;10.10;99.90;;;;;;5058255;28;20033;-88
2022/10/09 08:35:40;;;;;;;12.55;6.30;;;10.10;99.90;;;;;;5043178;28;20032;-88
2022/10/09 08:38:05;;;;;;;13.32;6.85;;;10.20;99.90;;;;;;5057208;28;20028;-89
2022/10/09 08:40:54;;;;;;;12.25;6.57;;;10.20;99.90;;;;;;5024096;28;20361;-88
2022/10/09 08:43:30;;;;;;;15.20;6.75;;;10.30;99.90;;;;;;5075073;28;20036;-88
2022/10/09 08:45:59;;;;;;;14.60;7.32;;;10.30;99.90;;;;;;5056839;28;20111;-88
2022/10/09 08:48:27;;;;;;;16.77;7.10;;;10.40;99.90;;;;;;5074724;28;20055;-89
2022/10/09 08:50:55;;;;;;;14.00;6.07;;;10.50;99.90;;;;;;5040864;28;20035;-89
2022/10/09 08:53:38;;;;;;;14.35;7.38;;;10.60;99.90;;;;;;5057167;28;20052;-89
2022/10/09 08:56:08;;;;;;;12.18;6.45;;;10.60;99.90;;;;;;5057058;28;20466;-88
2022/10/09 08:58:37;;;;;;;17.65;7.03;;;10.80;99.90;;;;;;5057177;28;20024;-88
2022/10/09 09:01:05;;;;;;;13.50;6.50;;;10.80;99.90;;;;;;5074117;28;20490;-88
2022/10/09 09:03:55;;;;;;;11.05;6.90;;;10.90;99.90;;;;;;5056892;28;20033;-88
2022/10/09 09:06:44;;;;;;;14.05;6.35;;;11.00;99.90;;;;;;5057041;28;20024;-89
2022/10/09 09:09:28;;;;;;;12.38;6.40;;;11.10;99.90;;;;;;5057070;28;20047;-88
2022/10/09 09:12:14;;;;;;;12.57;6.50;;;11.20;99.90;;;;;;5077822;28;20024;-87
2022/10/09 09:14:59;;;;;;;17.67;6.82;;;11.30;99.90;;;;;;5058523;28;20372;-87
2022/10/09 09:17:39;;;;;;;15.40;6.78;;;11.40;99.90;;;;;;5074295;28;20494;-87
2022/10/09 09:20:15;;;;;;;18.50;6.22;;;11.50;99.90;;;;;;5083980;28;20029;-87
2022/10/09 09:22:50;;;;;;;13.63;6.47;;;11.60;99.90;;;;;;5075708;28;20112;-90
2022/10/09 09:25:32;;;;;;;20.00;8.35;;;11.70;99.90;;;;;;5045276;28;20096;-88
2022/10/09 09:28:08;;;;;;;22.38;6.72;;;11.80;99.90;;;;;;5055041;28;20044;-89
2022/10/09 09:30:41;;;;;;;17.30;6.00;;;12.00;99.90;;;;;;5078990;28;20103;-90
2022/10/09 09:33:10;;;;;;;15.88;5.50;;;12.10;99.90;;;;;;5058440;28;20048;-89
2022/10/09 09:35:48;;;;;;;19.25;5.82;;;12.30;99.90;;;;;;5057980;28;20025;-87
2022/10/09 09:38:14;;;;;;;15.02;6.13;;;12.40;99.90;;;;;;5061169;28;20028;-90
2022/10/09 09:40:41;;;;;;;18.42;6.40;;;12.50;99.90;;;;;;5075844;28;20112;-89
2022/10/09 09:43:16;;;;;;;15.25;5.82;;;12.70;99.90;;;;;;5056751;28;20096;-90
2022/10/09 09:45:43;;;;;;;13.20;5.63;;;12.80;99.90;;;;;;5057758;28;20059;-89
2022/10/09 09:48:19;;;;;;;10.68;5.80;;;12.90;99.90;;;;;;5040357;28;20476;-89
2022/10/09 09:50:49;;;;;;;13.05;5.07;;;13.00;99.90;;;;;;5056896;28;20470;-87
2022/10/09 09:53:28;;;;;;;10.65;5.30;;;13.10;99.90;;;;;;5057842;28;20472;-89
2022/10/09 09:55:54;;;;;;;12.98;5.10;;;13.30;99.90;;;;;;5058296;28;20116;-89
2022/10/09 09:58:21;;;;;;;12.07;4.78;;;13.40;99.90;;;;;;5076750;28;20034;-90
2022/10/09 10:01:02;;;;;;;12.70;5.35;;;13.50;99.90;;;;;;5056589;28;20037;-89
2022/10/09 10:03:29;;;;;;;9.80;4.50;;;13.60;99.90;;;;;;5056493;28;20032;-90
2022/10/09 10:05:55;;;;;;;13.45;5.15;;;13.80;99.90;;;;;;5056812;28;20074;-90
2022/10/09 10:08:25;;;;;;;11.20;3.92;;;13.90;99.90;;;;;;5055874;28;20031;-90
2022/10/09 10:10:53;;;;;;;10.38;3.80;;;14.00;99.90;;;;;;5057359;28;20031;-86
2022/10/09 10:13:22;;;;;;;8.18;3.53;;;14.10;99.90;;;;;;5058400;28;20061;-90
2022/10/09 10:15:54;;;;;;;7.68;3.83;;;14.20;99.90;;;;;;5059667;28;20051;-90
2022/10/09 10:18:23;;;;;;;8.55;3.90;;;14.30;99.90;;;;;;5059484;28;20123;-89
2022/10/09 10:20:55;;;;;;;9.82;3.28;;;14.40;99.90;;;;;;5059841;28;20067;-89
2022/10/09 10:23:26;;;;;;;9.65;3.50;;;14.50;99.90;;;;;;5077542;28;20032;-87
2022/10/09 10:25:55;;;;;;;8.65;3.30;;;14.60;99.90;;;;;;5059906;28;20021;-89
2022/10/09 10:28:28;;;;;;;8.63;3.30;;;14.70;99.90;;;;;;5059752;28;20459;-88
2022/10/09 10:30:56;;;;;;;8.73;3.72;;;14.90;99.90;;;;;;5059615;28;20021;-90
2022/10/09 10:33:26;;;;;;;7.32;3.55;;;14.90;99.50;;;;;;5059577;28;20478;-88
2022/10/09 10:35:54;;;;;;;9.13;3.90;;;15.10;99.30;;;;;;5060230;28;20380;-88
2022/10/09 10:38:39;;;;;;;9.00;3.30;;;15.20;99.20;;;;;;5060073;28;20106;-88
2022/10/09 10:41:33;;;;;;;10.75;3.20;;;15.30;99.10;;;;;;5060046;28;20036;-89
2022/10/09 10:44:08;;;;;;;7.45;3.03;;;15.50;98.50;;;;;;5030500;28;20033;-87
2022/10/09 10:46:51;;;;;;;9.85;3.15;;;15.50;98.10;;;;;;5060264;28;20419;-92
2022/10/09 10:49:20;;;;;;;13.70;3.55;;;15.70;97.40;;;;;;5060307;28;20024;-95
2022/10/09 10:52:02;;;;;;;7.45;2.78;;;15.70;96.40;;;;;;5062348;28;20032;-93
2022/10/09 10:54:43;;;;;;;9.50;3.15;;;15.80;96.70;;;;;;5060442;28;20476;-94
2022/10/09 10:57:15;;;;;;;;;;;16.00;96.60;;;;;;5060895;28;20021;-93
2022/10/09 11:00:05;;;;;;;7.50;3.13;;;16.10;95.80;;;;;;5055366;28;19915;-92
2022/10/09 11:03:03;;;;;;;13.75;3.58;;;16.20;96.40;;;;;;5063041;28;20040;-94
2022/10/09 11:06:13;;;;;;;10.35;3.67;;;16.30;95.90;;;;;;5060851;28;20029;-94
2022/10/09 11:08:51;;;;;;;9.63;3.40;;;16.50;96.20;;;;;;5061028;28;20036;-88
2022/10/09 11:11:41;;;;;;;7.63;3.08;;;16.60;96.20;;;;;;5061907;28;20036;-89
2022/10/09 11:14:36;;;;;;;6.50;2.65;;;16.70;95.80;;;;;;5076892;28;20024;-89
2022/10/09 11:17:11;;;;;;;9.73;3.33;;;16.80;95.30;;;;;;5058905;28;20060;-88
2022/10/09 11:19:52;;;;;;;9.00;2.95;;;16.90;94.60;;;;;;5058288;28;20024;-87
2022/10/09 11:22:51;;;;;;;8.75;2.90;;;17.10;93.70;;;;;;5076744;28;20090;-88
2022/10/09 11:25:33;;;;;;;9.45;2.70;;;17.10;92.50;;;;;;5058663;28;20029;-89
2022/10/09 11:28:08;;;;;;;9.55;2.47;;;17.20;92.20;;;;;;5058622;28;20190;-88
2022/10/09 11:30:42;;;;;;;6.38;2.53;;;17.30;91.80;;;;;;5064915;28;20471;-89
2022/10/09 11:33:31;;;;;;;6.25;2.55;;;17.40;92.30;;;;;;5058501;28;20082;-88
2022/10/09 11:36:11;;;;;;;8.13;3.22;;;17.50;92.80;;;;;;5048559;28;20032;-90
2022/10/09 11:38:43;;;;;;;8.65;2.88;;;17.60;91.20;;;;;;5060642;28;20044;-89
2022/10/09 11:41:10;;;;;;;5.90;2.45;;;17.70;91.40;;;;;;5057969;28;20032;-90
2022/10/09 11:44:14;;;;;;;6.03;2.33;;;17.80;91.50;;;;;;5041096;28;20021;-89
2022/10/09 11:46:56;;;;;;;6.30;2.60;;;17.90;87.70;;;;;;5060023;28;20032;-89
2022/10/09 11:49:30;;;;;;;14.27;3.40;;;17.90;88.60;;;;;;5075601;28;20032;-88
2022/10/09 11:52:08;;;;;;;8.15;2.38;;;18.00;90.10;;;;;;5075492;28;20357;-88
2022/10/09 11:54:34;;;;;;;6.03;2.25;;;18.10;89.20;;;;;;5057300;28;20125;-88
2022/10/09 11:57:03;;;;;;;7.10;2.47;;;18.20;88.90;;;;;;5057575;28;20056;-87
2022/10/09 11:59:35;;;;;;;5.20;2.58;;;18.30;89.40;;;;;;5057311;28;20029;-89
2022/10/09 12:02:22;;;;;;;10.20;2.40;;;18.40;88.00;;;;;;5058045;28;20427;-88
2022/10/09 12:04:48;;;;;;;6.65;2.25;;;18.50;86.20;;;;;;5057376;28;20059;-88
2022/10/09 12:07:35;;;;;;;7.00;2.13;;;18.60;85.10;;;;;;5041396;28;20055;-87
2022/10/09 12:10:26;;;;;;;7.93;2.25;;;18.60;84.60;;;;;;5074795;28;20031;-88
2022/10/09 12:12:59;;;;;;;5.22;2.10;;;18.70;84.40;;;;;;5056930;28;20317;-86
2022/10/09 12:15:59;;;;;;;5.38;2.00;;;18.70;83.70;;;;;;5056861;28;20032;-87
2022/10/09 12:18:27;;;;;;;6.57;2.05;;;18.80;82.60;;;;;;5002696;28;20032;-88
2022/10/09 12:20:56;;;;;;;8.18;2.50;;;18.90;80.90;;;;;;5057064;28;20085;-88
2022/10/09 12:23:26;;;;;;;9.40;2.22;;;18.90;81.90;;;;;;5057156;28;20047;-87
2022/10/09 12:25:54;;;;;;;4.78;1.65;;;18.90;81.00;;;;;;5057324;28;20044;-87
2022/10/09 12:28:25;;;;;;;4.22;2.22;;;19.00;81.50;;;;;;5040432;28;20028;-88
2022/10/09 12:30:51;;;;;;;4.70;1.70;;;19.00;82.00;;;;;;5074860;28;20064;-88
2022/10/09 12:33:26;;;;;;;4.95;1.90;;;19.10;82.70;;;;;;5040346;28;20045;-87
2022/10/09 12:36:13;;;;;;;6.72;2.17;;;19.30;84.00;;;;;;5055927;28;20021;-88
2022/10/09 12:38:40;;;;;;;7.65;2.08;;;19.40;83.60;;;;;;5056638;28;20579;-87
2022/10/09 12:41:20;;;;;;;4.07;1.70;;;19.50;82.60;;;;;;5057006;28;20017;-89
2022/10/09 12:43:47;;;;;;;5.43;1.90;;;19.60;82.50;;;;;;5057187;28;20027;-89
2022/10/09 12:46:12;;;;;;;6.82;1.80;;;19.60;82.00;;;;;;5075132;28;20035;-88
2022/10/09 12:48:44;;;;;;;6.15;2.13;;;19.70;82.10;;;;;;5056204;28;20380;-87
2022/10/09 12:51:15;;;;;;;10.00;2.35;;;19.80;80.70;;;;;;5056300;28;20384;-89
2022/10/09 12:53:50;;;;;;;5.43;1.92;;;19.80;77.70;;;;;;5074216;28;20020;-87
2022/10/09 12:56:31;;;;;;;4.97;2.00;;;19.80;76.40;;;;;;5074333;28;20032;-86
2022/10/09 12:58:59;;;;;;;7.25;1.80;;;19.90;78.00;;;;;;5056239;28;20020;-87
2022/10/09 13:01:25;;;;;;;8.50;2.65;;;19.90;79.20;;;;;;5056277;28;20020;-87
2022/10/09 13:03:56;;;;;;;6.90;2.25;;;20.00;79.00;;;;;;5040161;28;20121;-88
2022/10/09 13:06:25;;;;;;;8.15;2.58;;;20.00;78.30;;;;;;5056573;28;20020;-88